sensor_id;sensor_type;location;lat;lon;timestamp;temperature;humidity
26503;DHT22;14177;51.520;6.764;2024-01-25T00:01:02;8.80;99.90
26503;DHT22;14177;51.520;6.764;2024-01-25T00:03:29;8.80;99.90
26503;DHT22;14177;51.520;6.764;2024-01-25T00:05:56;8.80;99.90
26503;DHT22;14177;51.520;6.764;2024-01-25T00:08:23;8.80;99.90
26503;DHT22;14177;51.520;6.764;2024-01-25T00:10:50;8.80;99.90
26503;DHT22;14177;51.520;6.764;2024-01-25T00:13:18;8.80;99.90
26503;DHT22;14177;51.520;6.764;2024-01-25T00:15:45;8.80;99.90
26503;DHT22;14177;51.520;6.764;2024-01-25T00:18:12;8.80;99.90
26503;DHT22;14177;51.520;6.764;2024-01-25T00:20:39;8.80;99.90
26503;DHT22;14177;51.520;6.764;2024-01-25T00:23:06;8.70;99.90
26503;DHT22;14177;51.520;6.764;2024-01-25T00:25:33;8.70;99.90
26503;DHT22;14177;51.520;6.764;2024-01-25T00:28:01;8.70;99.90
26503;DHT22;14177;51.520;6.764;2024-01-25T00:30:28;8.70;99.90
26503;DHT22;14177;51.520;6.764;2024-01-25T00:32:58;8.70;99.90
26503;DHT22;14177;51.520;6.764;2024-01-25T00:35:25;8.70;99.90
26503;DHT22;14177;51.520;6.764;2024-01-25T00:37:53;8.70;99.90
26503;DHT22;14177;51.520;6.764;2024-01-25T00:40:20;8.70;99.90
26503;DHT22;14177;51.520;6.764;2024-01-25T00:42:48;8.60;99.90
26503;DHT22;14177;51.520;6.764;2024-01-25T00:45:20;8.60;99.90
26503;DHT22;14177;51.520;6.764;2024-01-25T00:47:49;8.60;99.90
26503;DHT22;14177;51.520;6.764;2024-01-25T00:50:18;8.50;99.90
26503;DHT22;14177;51.520;6.764;2024-01-25T00:52:51;8.50;99.90
26503;DHT22;14177;51.520;6.764;2024-01-25T00:55:19;8.40;99.90
26503;DHT22;14177;51.520;6.764;2024-01-25T00:57:46;8.40;99.90
26503;DHT22;14177;51.520;6.764;2024-01-25T01:00:14;8.30;99.90
26503;DHT22;14177;51.520;6.764;2024-01-25T01:02:45;8.30;99.90
26503;DHT22;14177;51.520;6.764;2024-01-25T01:05:12;8.20;99.90
26503;DHT22;14177;51.520;6.764;2024-01-25T01:07:41;8.20;99.90
26503;DHT22;14177;51.520;6.764;2024-01-25T01:10:09;8.10;99.90
26503;DHT22;14177;51.520;6.764;2024-01-25T01:12:36;8.10;99.90
26503;DHT22;14177;51.520;6.764;2024-01-25T01:15:04;8.00;99.90
26503;DHT22;14177;51.520;6.764;2024-01-25T01:17:32;8.00;99.90
26503;DHT22;14177;51.520;6.764;2024-01-25T01:19:59;7.90;99.90
26503;DHT22;14177;51.520;6.764;2024-01-25T01:22:26;7.90;99.90
26503;DHT22;14177;51.520;6.764;2024-01-25T01:24:53;7.80;99.90
26503;DHT22;14177;51.520;6.764;2024-01-25T01:27:21;7.80;99.90
26503;DHT22;14177;51.520;6.764;2024-01-25T01:29:48;7.80;99.90
26503;DHT22;14177;51.520;6.764;2024-01-25T01:32:15;7.70;99.90
26503;DHT22;14177;51.520;6.764;2024-01-25T01:34:42;7.70;99.90
26503;DHT22;14177;51.520;6.764;2024-01-25T01:37:10;7.70;99.90
26503;DHT22;14177;51.520;6.764;2024-01-25T01:39:37;7.60;99.90
26503;DHT22;14177;51.520;6.764;2024-01-25T01:42:04;7.70;99.90
26503;DHT22;14177;51.520;6.764;2024-01-25T01:44:31;7.60;99.90
26503;DHT22;14177;51.520;6.764;2024-01-25T01:46:58;7.60;99.90
26503;DHT22;14177;51.520;6.764;2024-01-25T01:49:26;7.60;99.90
26503;DHT22;14177;51.520;6.764;2024-01-25T01:51:55;7.60;99.90
26503;DHT22;14177;51.520;6.764;2024-01-25T01:54:22;7.60;99.90
26503;DHT22;14177;51.520;6.764;2024-01-25T01:56:51;7.60;99.90
26503;DHT22;14177;51.520;6.764;2024-01-25T01:59:18;7.60;99.90
26503;DHT22;14177;51.520;6.764;2024-01-25T02:01:47;7.60;99.90
26503;DHT22;14177;51.520;6.764;2024-01-25T02:04:14;7.60;99.90
26503;DHT22;14177;51.520;6.764;2024-01-25T02:06:42;7.70;99.90
26503;DHT22;14177;51.520;6.764;2024-01-25T02:09:10;7.70;99.90
26503;DHT22;14177;51.520;6.764;2024-01-25T02:11:37;7.70;99.90
26503;DHT22;14177;51.520;6.764;2024-01-25T02:14:04;7.70;99.90
26503;DHT22;14177;51.520;6.764;2024-01-25T02:16:32;7.60;99.90
26503;DHT22;14177;51.520;6.764;2024-01-25T02:19:00;7.60;99.90
26503;DHT22;14177;51.520;6.764;2024-01-25T02:21:27;7.60;99.90
26503;DHT22;14177;51.520;6.764;2024-01-25T02:23:54;7.60;99.90
26503;DHT22;14177;51.520;6.764;2024-01-25T02:26:22;7.50;99.90
26503;DHT22;14177;51.520;6.764;2024-01-25T02:28:49;7.50;99.90
26503;DHT22;14177;51.520;6.764;2024-01-25T02:31:21;7.40;99.90
26503;DHT22;14177;51.520;6.764;2024-01-25T02:33:48;7.40;99.90
26503;DHT22;14177;51.520;6.764;2024-01-25T02:36:16;7.30;99.90
26503;DHT22;14177;51.520;6.764;2024-01-25T02:38:43;7.30;99.90
26503;DHT22;14177;51.520;6.764;2024-01-25T02:41:10;7.30;99.90
26503;DHT22;14177;51.520;6.764;2024-01-25T02:43:37;7.20;99.90
26503;DHT22;14177;51.520;6.764;2024-01-25T02:46:04;7.20;99.90
26503;DHT22;14177;51.520;6.764;2024-01-25T02:48:31;7.10;99.90
26503;DHT22;14177;51.520;6.764;2024-01-25T02:50:59;7.10;99.90
26503;DHT22;14177;51.520;6.764;2024-01-25T02:53:26;7.10;99.90
26503;DHT22;14177;51.520;6.764;2024-01-25T02:55:53;7.00;99.90
26503;DHT22;14177;51.520;6.764;2024-01-25T02:58:20;7.00;99.90
26503;DHT22;14177;51.520;6.764;2024-01-25T03:00:47;7.00;99.90
26503;DHT22;14177;51.520;6.764;2024-01-25T03:03:15;7.00;99.90
26503;DHT22;14177;51.520;6.764;2024-01-25T03:05:43;6.90;99.90
26503;DHT22;14177;51.520;6.764;2024-01-25T03:08:10;6.90;99.90
26503;DHT22;14177;51.520;6.764;2024-01-25T03:10:37;6.90;99.90
26503;DHT22;14177;51.520;6.764;2024-01-25T03:13:04;6.90;99.90
26503;DHT22;14177;51.520;6.764;2024-01-25T03:15:31;6.90;99.90
26503;DHT22;14177;51.520;6.764;2024-01-25T03:17:59;6.90;99.90
26503;DHT22;14177;51.520;6.764;2024-01-25T03:20:26;6.80;99.90
26503;DHT22;14177;51.520;6.764;2024-01-25T03:22:53;6.70;99.90
26503;DHT22;14177;51.520;6.764;2024-01-25T03:25:21;6.70;99.90
26503;DHT22;14177;51.520;6.764;2024-01-25T03:27:48;6.70;99.90
26503;DHT22;14177;51.520;6.764;2024-01-25T03:30:15;6.70;99.90
26503;DHT22;14177;51.520;6.764;2024-01-25T03:32:42;6.60;99.90
26503;DHT22;14177;51.520;6.764;2024-01-25T03:35:10;6.60;99.90
26503;DHT22;14177;51.520;6.764;2024-01-25T03:37:37;6.60;99.90
26503;DHT22;14177;51.520;6.764;2024-01-25T03:40:05;6.60;99.90
26503;DHT22;14177;51.520;6.764;2024-01-25T03:42:32;6.50;99.90
26503;DHT22;14177;51.520;6.764;2024-01-25T03:44:59;6.50;99.90
26503;DHT22;14177;51.520;6.764;2024-01-25T03:47:26;6.50;99.90
26503;DHT22;14177;51.520;6.764;2024-01-25T03:49:53;6.40;99.90
26503;DHT22;14177;51.520;6.764;2024-01-25T03:52:20;6.40;99.90
26503;DHT22;14177;51.520;6.764;2024-01-25T03:54:48;6.40;99.90
26503;DHT22;14177;51.520;6.764;2024-01-25T03:57:16;6.30;99.90
26503;DHT22;14177;51.520;6.764;2024-01-25T03:59:43;6.30;99.90
26503;DHT22;14177;51.520;6.764;2024-01-25T04:02:10;6.20;99.90
26503;DHT22;14177;51.520;6.764;2024-01-25T04:04:38;6.20;99.90
26503;DHT22;14177;51.520;6.764;2024-01-25T04:07:05;6.10;99.90
26503;DHT22;14177;51.520;6.764;2024-01-25T04:09:32;6.10;99.90
26503;DHT22;14177;51.520;6.764;2024-01-25T04:11:59;6.10;99.90
26503;DHT22;14177;51.520;6.764;2024-01-25T04:14:26;6.10;99.90
26503;DHT22;14177;51.520;6.764;2024-01-25T04:16:53;6.00;99.90
26503;DHT22;14177;51.520;6.764;2024-01-25T04:19:20;6.00;99.90
26503;DHT22;14177;51.520;6.764;2024-01-25T04:21:47;6.00;99.90
26503;DHT22;14177;51.520;6.764;2024-01-25T04:24:15;6.00;99.90
26503;DHT22;14177;51.520;6.764;2024-01-25T04:26:42;6.00;99.90
26503;DHT22;14177;51.520;6.764;2024-01-25T04:29:08;5.90;99.90
26503;DHT22;14177;51.520;6.764;2024-01-25T04:31:42;5.90;99.90
26503;DHT22;14177;51.520;6.764;2024-01-25T04:34:12;5.90;99.90
26503;DHT22;14177;51.520;6.764;2024-01-25T04:36:40;5.90;99.90
26503;DHT22;14177;51.520;6.764;2024-01-25T04:39:07;5.90;99.90
26503;DHT22;14177;51.520;6.764;2024-01-25T04:41:35;5.90;99.90
26503;DHT22;14177;51.520;6.764;2024-01-25T04:44:02;5.80;99.90
26503;DHT22;14177;51.520;6.764;2024-01-25T04:46:30;5.80;99.90
26503;DHT22;14177;51.520;6.764;2024-01-25T04:49:02;5.80;99.90
26503;DHT22;14177;51.520;6.764;2024-01-25T04:51:30;5.80;99.90
26503;DHT22;14177;51.520;6.764;2024-01-25T04:53:57;5.70;99.90
26503;DHT22;14177;51.520;6.764;2024-01-25T04:56:24;5.70;99.90
26503;DHT22;14177;51.520;6.764;2024-01-25T04:58:51;5.60;99.90
26503;DHT22;14177;51.520;6.764;2024-01-25T05:01:18;5.60;99.90
26503;DHT22;14177;51.520;6.764;2024-01-25T05:03:46;5.50;99.90
26503;DHT22;14177;51.520;6.764;2024-01-25T05:06:13;5.50;99.90
26503;DHT22;14177;51.520;6.764;2024-01-25T05:08:42;5.50;99.90
26503;DHT22;14177;51.520;6.764;2024-01-25T05:11:10;5.40;99.90
26503;DHT22;14177;51.520;6.764;2024-01-25T05:13:37;5.40;99.90
26503;DHT22;14177;51.520;6.764;2024-01-25T05:16:04;5.40;99.90
26503;DHT22;14177;51.520;6.764;2024-01-25T05:18:32;5.30;99.90
26503;DHT22;14177;51.520;6.764;2024-01-25T05:20:59;5.20;99.90
26503;DHT22;14177;51.520;6.764;2024-01-25T05:23:26;5.10;99.90
26503;DHT22;14177;51.520;6.764;2024-01-25T05:25:53;5.10;99.90
26503;DHT22;14177;51.520;6.764;2024-01-25T05:28:20;5.00;99.90
26503;DHT22;14177;51.520;6.764;2024-01-25T05:30:47;4.90;99.90
26503;DHT22;14177;51.520;6.764;2024-01-25T05:33:15;4.90;99.90
26503;DHT22;14177;51.520;6.764;2024-01-25T05:35:43;4.90;99.90
26503;DHT22;14177;51.520;6.764;2024-01-25T05:38:10;4.90;99.90
26503;DHT22;14177;51.520;6.764;2024-01-25T05:40:37;4.90;99.90
26503;DHT22;14177;51.520;6.764;2024-01-25T05:43:04;4.90;99.90
26503;DHT22;14177;51.520;6.764;2024-01-25T05:45:32;4.90;99.90
26503;DHT22;14177;51.520;6.764;2024-01-25T05:47:59;4.90;99.90
26503;DHT22;14177;51.520;6.764;2024-01-25T05:50:26;4.90;99.90
26503;DHT22;14177;51.520;6.764;2024-01-25T05:52:53;4.90;99.90
26503;DHT22;14177;51.520;6.764;2024-01-25T05:55:20;4.90;99.90
26503;DHT22;14177;51.520;6.764;2024-01-25T05:57:47;4.80;99.90
26503;DHT22;14177;51.520;6.764;2024-01-25T06:00:15;4.80;99.90
26503;DHT22;14177;51.520;6.764;2024-01-25T06:02:47;4.90;99.90
26503;DHT22;14177;51.520;6.764;2024-01-25T06:05:15;4.90;99.90
26503;DHT22;14177;51.520;6.764;2024-01-25T06:07:42;4.90;99.90
26503;DHT22;14177;51.520;6.764;2024-01-25T06:10:10;4.90;99.90
26503;DHT22;14177;51.520;6.764;2024-01-25T06:12:38;5.00;99.90
26503;DHT22;14177;51.520;6.764;2024-01-25T06:15:05;4.90;99.90
26503;DHT22;14177;51.520;6.764;2024-01-25T06:17:33;4.90;99.90
26503;DHT22;14177;51.520;6.764;2024-01-25T06:20:01;4.80;99.90
26503;DHT22;14177;51.520;6.764;2024-01-25T06:22:29;4.90;99.90
26503;DHT22;14177;51.520;6.764;2024-01-25T06:24:56;4.90;99.90
26503;DHT22;14177;51.520;6.764;2024-01-25T06:27:23;4.90;99.90
26503;DHT22;14177;51.520;6.764;2024-01-25T06:29:50;4.80;99.90
26503;DHT22;14177;51.520;6.764;2024-01-25T06:32:17;4.70;99.90
26503;DHT22;14177;51.520;6.764;2024-01-25T06:34:52;4.70;99.90
26503;DHT22;14177;51.520;6.764;2024-01-25T06:37:20;4.60;99.90
26503;DHT22;14177;51.520;6.764;2024-01-25T06:39:47;4.50;99.90
26503;DHT22;14177;51.520;6.764;2024-01-25T06:42:15;4.50;99.90
26503;DHT22;14177;51.520;6.764;2024-01-25T06:44:42;4.40;99.90
26503;DHT22;14177;51.520;6.764;2024-01-25T06:47:10;4.30;99.90
26503;DHT22;14177;51.520;6.764;2024-01-25T06:49:37;4.30;99.90
26503;DHT22;14177;51.520;6.764;2024-01-25T06:52:04;4.20;99.90
26503;DHT22;14177;51.520;6.764;2024-01-25T06:54:32;4.10;99.90
26503;DHT22;14177;51.520;6.764;2024-01-25T06:56:59;4.10;99.90
26503;DHT22;14177;51.520;6.764;2024-01-25T06:59:26;4.10;99.90
26503;DHT22;14177;51.520;6.764;2024-01-25T07:01:53;4.10;99.90
26503;DHT22;14177;51.520;6.764;2024-01-25T07:04:21;4.10;99.90
26503;DHT22;14177;51.520;6.764;2024-01-25T07:06:49;4.10;99.90
26503;DHT22;14177;51.520;6.764;2024-01-25T07:09:17;4.10;99.90
26503;DHT22;14177;51.520;6.764;2024-01-25T07:11:44;4.10;99.90
26503;DHT22;14177;51.520;6.764;2024-01-25T07:14:11;4.10;99.90
26503;DHT22;14177;51.520;6.764;2024-01-25T07:16:38;4.10;99.90
26503;DHT22;14177;51.520;6.764;2024-01-25T07:19:05;4.10;99.90
26503;DHT22;14177;51.520;6.764;2024-01-25T07:21:32;4.00;99.90
26503;DHT22;14177;51.520;6.764;2024-01-25T07:24:03;4.00;99.90
26503;DHT22;14177;51.520;6.764;2024-01-25T07:26:31;4.00;99.90
26503;DHT22;14177;51.520;6.764;2024-01-25T07:28:58;3.90;99.90
26503;DHT22;14177;51.520;6.764;2024-01-25T07:31:27;3.90;99.90
26503;DHT22;14177;51.520;6.764;2024-01-25T07:33:55;3.80;99.90
26503;DHT22;14177;51.520;6.764;2024-01-25T07:36:22;3.90;99.90
26503;DHT22;14177;51.520;6.764;2024-01-25T07:38:51;3.90;99.90
26503;DHT22;14177;51.520;6.764;2024-01-25T07:41:18;3.80;99.90
26503;DHT22;14177;51.520;6.764;2024-01-25T07:43:45;3.90;99.90
26503;DHT22;14177;51.520;6.764;2024-01-25T07:46:12;4.00;99.90
26503;DHT22;14177;51.520;6.764;2024-01-25T07:48:42;4.10;99.90
26503;DHT22;14177;51.520;6.764;2024-01-25T07:51:13;4.10;99.90
26503;DHT22;14177;51.520;6.764;2024-01-25T07:53:40;4.20;99.90
26503;DHT22;14177;51.520;6.764;2024-01-25T07:56:08;4.30;99.90
26503;DHT22;14177;51.520;6.764;2024-01-25T07:58:36;4.40;99.90
26503;DHT22;14177;51.520;6.764;2024-01-25T08:01:05;4.60;99.90
26503;DHT22;14177;51.520;6.764;2024-01-25T08:03:33;4.60;99.90
26503;DHT22;14177;51.520;6.764;2024-01-25T08:06:02;4.60;99.90
26503;DHT22;14177;51.520;6.764;2024-01-25T08:08:30;4.80;99.90
26503;DHT22;14177;51.520;6.764;2024-01-25T08:10:57;4.80;99.90
26503;DHT22;14177;51.520;6.764;2024-01-25T08:13:25;5.00;99.90
26503;DHT22;14177;51.520;6.764;2024-01-25T08:15:57;5.00;99.90
26503;DHT22;14177;51.520;6.764;2024-01-25T08:18:24;5.10;99.90
26503;DHT22;14177;51.520;6.764;2024-01-25T08:20:51;5.20;99.90
26503;DHT22;14177;51.520;6.764;2024-01-25T08:23:19;5.20;99.90
26503;DHT22;14177;51.520;6.764;2024-01-25T08:25:46;5.30;99.90
26503;DHT22;14177;51.520;6.764;2024-01-25T08:28:13;5.30;99.90
26503;DHT22;14177;51.520;6.764;2024-01-25T08:30:40;5.40;99.90
26503;DHT22;14177;51.520;6.764;2024-01-25T08:33:07;5.50;99.90
26503;DHT22;14177;51.520;6.764;2024-01-25T08:35:34;5.60;99.90
26503;DHT22;14177;51.520;6.764;2024-01-25T08:38:02;5.60;99.90
26503;DHT22;14177;51.520;6.764;2024-01-25T08:40:29;5.70;99.90
26503;DHT22;14177;51.520;6.764;2024-01-25T08:42:57;5.70;99.90
26503;DHT22;14177;51.520;6.764;2024-01-25T08:45:24;5.70;99.90
26503;DHT22;14177;51.520;6.764;2024-01-25T08:47:51;5.80;99.90
26503;DHT22;14177;51.520;6.764;2024-01-25T08:50:19;5.80;99.90
26503;DHT22;14177;51.520;6.764;2024-01-25T08:52:48;5.80;99.90
26503;DHT22;14177;51.520;6.764;2024-01-25T08:55:16;5.90;99.90
26503;DHT22;14177;51.520;6.764;2024-01-25T08:57:43;5.90;99.90
26503;DHT22;14177;51.520;6.764;2024-01-25T09:00:10;5.90;99.90
26503;DHT22;14177;51.520;6.764;2024-01-25T09:02:38;6.00;99.90
26503;DHT22;14177;51.520;6.764;2024-01-25T09:05:05;6.00;99.90
26503;DHT22;14177;51.520;6.764;2024-01-25T09:07:34;6.10;99.90
26503;DHT22;14177;51.520;6.764;2024-01-25T09:10:02;6.20;99.90
26503;DHT22;14177;51.520;6.764;2024-01-25T09:12:29;6.20;99.90
26503;DHT22;14177;51.520;6.764;2024-01-25T09:14:56;6.20;99.90
26503;DHT22;14177;51.520;6.764;2024-01-25T09:17:24;6.30;99.90
26503;DHT22;14177;51.520;6.764;2024-01-25T09:19:51;6.30;99.90
26503;DHT22;14177;51.520;6.764;2024-01-25T09:22:19;6.30;99.90
26503;DHT22;14177;51.520;6.764;2024-01-25T09:24:46;6.40;99.90
26503;DHT22;14177;51.520;6.764;2024-01-25T09:27:14;6.50;99.90
26503;DHT22;14177;51.520;6.764;2024-01-25T09:29:42;6.60;99.90
26503;DHT22;14177;51.520;6.764;2024-01-25T09:32:09;6.60;99.90
26503;DHT22;14177;51.520;6.764;2024-01-25T09:34:38;6.70;99.90
26503;DHT22;14177;51.520;6.764;2024-01-25T09:37:09;6.90;99.90
26503;DHT22;14177;51.520;6.764;2024-01-25T09:39:40;7.00;99.90
26503;DHT22;14177;51.520;6.764;2024-01-25T09:42:17;7.30;99.90
26503;DHT22;14177;51.520;6.764;2024-01-25T09:45:09;7.60;99.90
26503;DHT22;14177;51.520;6.764;2024-01-25T09:48:23;8.00;99.90
26503;DHT22;14177;51.520;6.764;2024-01-25T09:51:23;8.50;99.90
26503;DHT22;14177;51.520;6.764;2024-01-25T09:53:57;8.70;99.90
26503;DHT22;14177;51.520;6.764;2024-01-25T09:56:34;9.10;99.90
26503;DHT22;14177;51.520;6.764;2024-01-25T09:59:23;9.40;99.90
26503;DHT22;14177;51.520;6.764;2024-01-25T10:02:59;9.50;99.90
26503;DHT22;14177;51.520;6.764;2024-01-25T10:10:26;9.00;99.90
26503;DHT22;14177;51.520;6.764;2024-01-25T10:13:12;9.00;99.90
26503;DHT22;14177;51.520;6.764;2024-01-25T10:15:56;8.80;99.90
26503;DHT22;14177;51.520;6.764;2024-01-25T10:19:28;8.60;99.90
26503;DHT22;14177;51.520;6.764;2024-01-25T10:22:48;8.30;99.90
26503;DHT22;14177;51.520;6.764;2024-01-25T10:26:18;8.20;99.90
26503;DHT22;14177;51.520;6.764;2024-01-25T10:30:02;8.20;99.90
26503;DHT22;14177;51.520;6.764;2024-01-25T10:33:11;8.00;99.90
26503;DHT22;14177;51.520;6.764;2024-01-25T10:36:44;8.20;99.90
26503;DHT22;14177;51.520;6.764;2024-01-25T10:40:14;8.20;99.90
26503;DHT22;14177;51.520;6.764;2024-01-25T10:43:14;8.30;99.90
26503;DHT22;14177;51.520;6.764;2024-01-25T10:45:42;8.50;99.90
26503;DHT22;14177;51.520;6.764;2024-01-25T10:48:09;8.50;99.90
26503;DHT22;14177;51.520;6.764;2024-01-25T10:50:38;8.60;99.90
26503;DHT22;14177;51.520;6.764;2024-01-25T10:53:07;8.80;99.90
26503;DHT22;14177;51.520;6.764;2024-01-25T10:55:36;9.10;99.90
26503;DHT22;14177;51.520;6.764;2024-01-25T10:58:03;9.40;99.90
26503;DHT22;14177;51.520;6.764;2024-01-25T11:00:31;9.60;99.90
26503;DHT22;14177;51.520;6.764;2024-01-25T11:03:01;9.80;99.90
26503;DHT22;14177;51.520;6.764;2024-01-25T11:05:28;10.30;99.90
26503;DHT22;14177;51.520;6.764;2024-01-25T11:07:55;10.70;99.90
26503;DHT22;14177;51.520;6.764;2024-01-25T11:10:26;10.80;99.90
26503;DHT22;14177;51.520;6.764;2024-01-25T11:12:56;11.00;99.90
26503;DHT22;14177;51.520;6.764;2024-01-25T11:15:36;11.10;99.90
26503;DHT22;14177;51.520;6.764;2024-01-25T11:18:07;11.50;99.90
26503;DHT22;14177;51.520;6.764;2024-01-25T11:20:36;11.80;99.90
26503;DHT22;14177;51.520;6.764;2024-01-25T11:23:07;12.30;99.90
26503;DHT22;14177;51.520;6.764;2024-01-25T11:25:40;12.50;99.90
26503;DHT22;14177;51.520;6.764;2024-01-25T11:28:07;12.40;99.90
26503;DHT22;14177;51.520;6.764;2024-01-25T11:30:35;12.30;99.90
26503;DHT22;14177;51.520;6.764;2024-01-25T11:33:07;11.90;99.90
26503;DHT22;14177;51.520;6.764;2024-01-25T11:35:35;11.70;99.90
26503;DHT22;14177;51.520;6.764;2024-01-25T11:38:02;11.80;99.90
26503;DHT22;14177;51.520;6.764;2024-01-25T11:40:30;11.70;99.90
26503;DHT22;14177;51.520;6.764;2024-01-25T11:43:05;11.70;99.90
26503;DHT22;14177;51.520;6.764;2024-01-25T11:45:38;11.80;99.90
26503;DHT22;14177;51.520;6.764;2024-01-25T11:48:10;11.70;99.90
26503;DHT22;14177;51.520;6.764;2024-01-25T11:50:38;12.00;99.90
26503;DHT22;14177;51.520;6.764;2024-01-25T11:53:05;11.90;99.90
26503;DHT22;14177;51.520;6.764;2024-01-25T11:55:32;11.50;99.90
26503;DHT22;14177;51.520;6.764;2024-01-25T11:57:59;11.20;99.90
26503;DHT22;14177;51.520;6.764;2024-01-25T12:00:27;10.90;99.90
26503;DHT22;14177;51.520;6.764;2024-01-25T12:02:55;10.50;99.90
26503;DHT22;14177;51.520;6.764;2024-01-25T12:05:57;10.30;99.90
26503;DHT22;14177;51.520;6.764;2024-01-25T12:16:42;9.80;99.90
26503;DHT22;14177;51.520;6.764;2024-01-25T12:19:29;9.70;99.90
26503;DHT22;14177;51.520;6.764;2024-01-25T12:22:01;9.70;99.90
26503;DHT22;14177;51.520;6.764;2024-01-25T12:24:31;9.60;99.90
26503;DHT22;14177;51.520;6.764;2024-01-25T12:31:05;9.70;99.90
26503;DHT22;14177;51.520;6.764;2024-01-25T12:33:47;9.80;99.90
26503;DHT22;14177;51.520;6.764;2024-01-25T12:36:19;9.70;99.90
26503;DHT22;14177;51.520;6.764;2024-01-25T12:38:52;9.50;99.90
26503;DHT22;14177;51.520;6.764;2024-01-25T12:41:25;9.50;99.90
26503;DHT22;14177;51.520;6.764;2024-01-25T12:43:54;9.30;99.90
26503;DHT22;14177;51.520;6.764;2024-01-25T12:46:28;9.30;99.90
26503;DHT22;14177;51.520;6.764;2024-01-25T12:52:59;9.20;99.90
26503;DHT22;14177;51.520;6.764;2024-01-25T12:55:52;9.20;99.90
26503;DHT22;14177;51.520;6.764;2024-01-25T12:58:31;9.30;99.90
26503;DHT22;14177;51.520;6.764;2024-01-25T13:01:14;9.50;99.90
26503;DHT22;14177;51.520;6.764;2024-01-25T13:03:51;9.50;99.90
26503;DHT22;14177;51.520;6.764;2024-01-25T13:06:21;9.40;99.90
26503;DHT22;14177;51.520;6.764;2024-01-25T13:09:10;9.40;99.90
26503;DHT22;14177;51.520;6.764;2024-01-25T13:13:16;9.50;99.90
26503;DHT22;14177;51.520;6.764;2024-01-25T13:17:16;9.30;99.90
26503;DHT22;14177;51.520;6.764;2024-01-25T13:20:24;9.40;99.90
26503;DHT22;14177;51.520;6.764;2024-01-25T13:23:26;9.40;99.90
26503;DHT22;14177;51.520;6.764;2024-01-25T13:30:06;9.30;99.90
26503;DHT22;14177;51.520;6.764;2024-01-25T13:36:34;9.00;99.90
26503;DHT22;14177;51.520;6.764;2024-01-25T13:40:58;9.00;99.90
26503;DHT22;14177;51.520;6.764;2024-01-25T13:44:12;8.90;99.90
26503;DHT22;14177;51.520;6.764;2024-01-25T13:47:15;8.90;99.90
26503;DHT22;14177;51.520;6.764;2024-01-25T13:49:50;8.80;99.90
26503;DHT22;14177;51.520;6.764;2024-01-25T13:53:29;8.90;99.90
26503;DHT22;14177;51.520;6.764;2024-01-25T13:56:17;8.90;99.90
26503;DHT22;14177;51.520;6.764;2024-01-25T13:58:59;8.90;99.90
26503;DHT22;14177;51.520;6.764;2024-01-25T14:01:46;8.90;99.90
26503;DHT22;14177;51.520;6.764;2024-01-25T14:04:14;8.90;99.90
26503;DHT22;14177;51.520;6.764;2024-01-25T14:06:41;9.00;99.90
26503;DHT22;14177;51.520;6.764;2024-01-25T14:09:09;9.00;99.90
26503;DHT22;14177;51.520;6.764;2024-01-25T14:11:36;9.00;99.90
26503;DHT22;14177;51.520;6.764;2024-01-25T14:14:03;9.00;99.90
26503;DHT22;14177;51.520;6.764;2024-01-25T14:16:30;9.00;99.90
26503;DHT22;14177;51.520;6.764;2024-01-25T14:18:58;9.00;99.90
26503;DHT22;14177;51.520;6.764;2024-01-25T14:21:26;8.90;99.90
26503;DHT22;14177;51.520;6.764;2024-01-25T14:23:53;9.00;99.90
26503;DHT22;14177;51.520;6.764;2024-01-25T14:26:20;8.90;99.90
26503;DHT22;14177;51.520;6.764;2024-01-25T14:28:48;9.00;99.90
26503;DHT22;14177;51.520;6.764;2024-01-25T14:31:15;9.00;99.90
26503;DHT22;14177;51.520;6.764;2024-01-25T14:33:42;9.00;99.90
26503;DHT22;14177;51.520;6.764;2024-01-25T14:36:12;8.90;99.90
26503;DHT22;14177;51.520;6.764;2024-01-25T14:38:41;8.90;99.90
26503;DHT22;14177;51.520;6.764;2024-01-25T14:41:11;8.90;99.90
26503;DHT22;14177;51.520;6.764;2024-01-25T14:43:38;8.90;99.90
26503;DHT22;14177;51.520;6.764;2024-01-25T14:46:07;8.90;99.90
26503;DHT22;14177;51.520;6.764;2024-01-25T14:48:34;8.90;99.90
26503;DHT22;14177;51.520;6.764;2024-01-25T14:51:02;8.90;99.90
26503;DHT22;14177;51.520;6.764;2024-01-25T14:53:29;8.90;99.90
26503;DHT22;14177;51.520;6.764;2024-01-25T14:55:58;8.90;99.90
26503;DHT22;14177;51.520;6.764;2024-01-25T14:58:29;8.90;99.90
26503;DHT22;14177;51.520;6.764;2024-01-25T15:00:59;8.90;99.90
26503;DHT22;14177;51.520;6.764;2024-01-25T15:03:37;8.90;99.90
26503;DHT22;14177;51.520;6.764;2024-01-25T15:06:22;8.90;99.90
26503;DHT22;14177;51.520;6.764;2024-01-25T15:09:02;8.90;99.90
26503;DHT22;14177;51.520;6.764;2024-01-25T15:11:42;8.90;99.90
26503;DHT22;14177;51.520;6.764;2024-01-25T15:14:47;8.90;99.90
26503;DHT22;14177;51.520;6.764;2024-01-25T15:17:40;8.90;99.90
26503;DHT22;14177;51.520;6.764;2024-01-25T15:23:51;8.90;99.90
26503;DHT22;14177;51.520;6.764;2024-01-25T15:26:41;8.90;99.90
26503;DHT22;14177;51.520;6.764;2024-01-25T15:29:21;8.90;99.90
26503;DHT22;14177;51.520;6.764;2024-01-25T15:32:48;8.90;99.90
26503;DHT22;14177;51.520;6.764;2024-01-25T15:35:22;9.00;99.90
26503;DHT22;14177;51.520;6.764;2024-01-25T15:38:11;9.00;99.90
26503;DHT22;14177;51.520;6.764;2024-01-25T15:41:27;9.00;99.90
26503;DHT22;14177;51.520;6.764;2024-01-25T15:44:00;9.00;99.90
26503;DHT22;14177;51.520;6.764;2024-01-25T15:46:32;9.00;99.90
26503;DHT22;14177;51.520;6.764;2024-01-25T15:49:03;9.00;99.90
26503;DHT22;14177;51.520;6.764;2024-01-25T15:51:31;9.00;99.90
26503;DHT22;14177;51.520;6.764;2024-01-25T15:54:00;9.00;99.90
26503;DHT22;14177;51.520;6.764;2024-01-25T15:56:32;9.00;99.90
26503;DHT22;14177;51.520;6.764;2024-01-25T15:59:01;9.00;99.90
26503;DHT22;14177;51.520;6.764;2024-01-25T16:01:39;9.00;99.90
26503;DHT22;14177;51.520;6.764;2024-01-25T16:04:13;9.00;99.90
26503;DHT22;14177;51.520;6.764;2024-01-25T16:06:48;9.00;99.90
26503;DHT22;14177;51.520;6.764;2024-01-25T16:09:17;9.00;99.90
26503;DHT22;14177;51.520;6.764;2024-01-25T16:12:00;9.00;99.90
26503;DHT22;14177;51.520;6.764;2024-01-25T16:14:29;9.00;99.90
26503;DHT22;14177;51.520;6.764;2024-01-25T16:17:02;9.00;99.90
26503;DHT22;14177;51.520;6.764;2024-01-25T16:19:32;9.00;99.90
26503;DHT22;14177;51.520;6.764;2024-01-25T16:22:05;8.90;99.90
26503;DHT22;14177;51.520;6.764;2024-01-25T16:24:55;9.00;99.90
26503;DHT22;14177;51.520;6.764;2024-01-25T16:27:43;8.90;99.90
26503;DHT22;14177;51.520;6.764;2024-01-25T16:30:21;8.90;99.90
26503;DHT22;14177;51.520;6.764;2024-01-25T16:33:01;9.00;99.90
26503;DHT22;14177;51.520;6.764;2024-01-25T16:35:34;9.00;99.90
26503;DHT22;14177;51.520;6.764;2024-01-25T16:42:35;8.90;99.90
26503;DHT22;14177;51.520;6.764;2024-01-25T16:45:04;8.90;99.90
26503;DHT22;14177;51.520;6.764;2024-01-25T16:47:32;8.90;99.90
26503;DHT22;14177;51.520;6.764;2024-01-25T16:50:48;8.90;99.90
26503;DHT22;14177;51.520;6.764;2024-01-25T16:53:24;8.90;99.90
26503;DHT22;14177;51.520;6.764;2024-01-25T16:56:49;8.90;99.90
26503;DHT22;14177;51.520;6.764;2024-01-25T17:00:37;8.90;99.90